Time;durP1;ratioP1;P1;durP2;ratioP2;P2;SDS_P1;SDS_P2;PMS_P1;PMS_P2;Temp;Humidity;BMP_temperature;BMP_pressure;BME280_temperature;BME280_humidity;BME280_pressure;Samples;Min_cycle;Max_cycle;Signal;HPM_P1;HPM_P2
2023/03/28 00:00:31;;;;;;;2.40;1.05;;;4.50;71.20;;;;;;5044180;28;20041;-65
2023/03/28 00:02:57;;;;;;;2.13;0.77;;;4.50;71.80;;;;;;5040078;28;20041;-66
2023/03/28 00:05:23;;;;;;;4.13;0.98;;;4.40;71.30;;;;;;5044431;28;20040;-65
2023/03/28 00:07:50;;;;;;;3.38;0.90;;;4.50;71.30;;;;;;5035518;28;20048;-65
2023/03/28 00:10:16;;;;;;;4.03;0.63;;;4.40;71.40;;;;;;5047850;28;20021;-65
2023/03/28 00:12:42;;;;;;;1.40;1.00;;;4.40;72.20;;;;;;5044273;28;20039;-65
2023/03/28 00:15:08;;;;;;;0.40;0.40;;;4.40;71.70;;;;;;5045711;28;20013;-69
2023/03/28 00:17:34;;;;;;;0.68;0.68;;;4.30;71.80;;;;;;5048549;28;20115;-68
2023/03/28 00:20:03;;;;;;;1.50;0.65;;;4.30;71.90;;;;;;5041002;28;20116;-68
2023/03/28 00:22:30;;;;;;;1.40;0.70;;;4.30;71.90;;;;;;5044203;28;20138;-68
2023/03/28 00:25:00;;;;;;;0.63;0.63;;;4.30;71.80;;;;;;5041890;28;20017;-69
2023/03/28 00:27:25;;;;;;;1.60;1.02;;;4.30;71.80;;;;;;5048822;28;20496;-69
2023/03/28 00:29:51;;;;;;;3.28;1.15;;;4.30;71.80;;;;;;5049032;28;20039;-68
2023/03/28 00:32:17;;;;;;;1.00;0.85;;;4.30;71.80;;;;;;5038526;28;20406;-68
2023/03/28 00:34:42;;;;;;;1.05;0.50;;;4.20;71.90;;;;;;5042242;28;20044;-65
2023/03/28 00:37:16;;;;;;;2.05;0.98;;;4.20;72.00;;;;;;5040388;28;20044;-64
2023/03/28 00:39:48;;;;;;;5.07;1.02;;;4.20;72.20;;;;;;5045621;28;20073;-65
2023/03/28 00:42:16;;;;;;;0.60;0.30;;;4.20;72.30;;;;;;5046961;28;20737;-64
2023/03/28 00:44:50;;;;;;;3.47;0.70;;;4.10;72.40;;;;;;5045295;28;20023;-66
2023/03/28 00:47:32;;;;;;;2.40;1.13;;;4.10;72.50;;;;;;5047067;28;20033;-66
2023/03/28 00:50:04;;;;;;;1.43;0.87;;;4.10;72.50;;;;;;5037883;28;20013;-66
2023/03/28 00:52:36;;;;;;;1.00;0.98;;;4.10;72.60;;;;;;5042269;28;20464;-65
2023/03/28 00:55:03;;;;;;;4.07;0.93;;;4.10;72.60;;;;;;5038609;28;20029;-69
2023/03/28 00:57:29;;;;;;;1.15;0.65;;;4.10;72.60;;;;;;5044855;28;20447;-69
2023/03/28 00:59:55;;;;;;;2.78;0.65;;;4.00;72.70;;;;;;5046408;28;20024;-68
2023/03/28 01:02:21;;;;;;;2.03;0.38;;;4.00;72.80;;;;;;5045468;28;20118;-68
2023/03/28 01:05:00;;;;;;;2.20;1.00;;;4.00;72.70;;;;;;5041638;28;20462;-69
2023/03/28 01:07:32;;;;;;;4.43;1.10;;;4.00;72.80;;;;;;5048050;28;20097;-66
2023/03/28 01:09:58;;;;;;;2.28;0.85;;;4.00;72.90;;;;;;5039983;28;20017;-65
2023/03/28 01:12:24;;;;;;;0.25;0.25;;;4.00;72.90;;;;;;5045322;28;20487;-68
2023/03/28 01:14:50;;;;;;;2.63;0.80;;;4.00;72.90;;;;;;5040436;28;20033;-68
2023/03/28 01:17:15;;;;;;;0.98;0.80;;;3.90;72.90;;;;;;5040216;28;20425;-68
2023/03/28 01:20:04;;;;;;;1.65;0.50;;;3.90;73.00;;;;;;5039646;28;20039;-67
2023/03/28 01:22:39;;;;;;;2.55;0.52;;;3.90;73.10;;;;;;5045130;28;20032;-65
2023/03/28 01:25:26;;;;;;;2.95;0.50;;;3.90;73.70;;;;;;5040928;28;20025;-65
2023/03/28 01:28:01;;;;;;;2.05;1.15;;;3.90;73.00;;;;;;5041467;28;20028;-65
2023/03/28 01:30:53;;;;;;;0.98;0.82;;;3.90;73.00;;;;;;5047168;28;20049;-65
2023/03/28 01:33:54;;;;;;;6.40;1.38;;;3.90;73.00;;;;;;5040470;28;20078;-65
2023/03/28 01:37:04;;;;;;;1.88;0.88;;;3.80;72.90;;;;;;5025444;28;20029;-64
2023/03/28 01:39:54;;;;;;;2.00;0.45;;;3.80;73.00;;;;;;5039191;28;20112;-65
2023/03/28 01:42:31;;;;;;;4.75;0.60;;;3.70;73.10;;;;;;5039785;28;20416;-69
2023/03/28 01:45:02;;;;;;;0.70;0.50;;;3.70;73.30;;;;;;5034953;28;20409;-68
2023/03/28 01:47:39;;;;;;;2.53;0.73;;;3.70;73.40;;;;;;5046958;28;20483;-65
2023/03/28 01:50:17;;;;;;;3.20;0.90;;;3.70;73.50;;;;;;5044342;28;20021;-68
2023/03/28 01:52:42;;;;;;;6.25;1.10;;;3.60;73.60;;;;;;5041922;28;20143;-68
2023/03/28 01:55:36;;;;;;;0.52;0.50;;;3.60;73.70;;;;;;5038243;28;20092;-65
2023/03/28 01:58:13;;;;;;;6.25;1.10;;;3.60;73.70;;;;;;5046661;28;20617;-64
2023/03/28 02:00:43;;;;;;;1.65;0.80;;;3.60;73.60;;;;;;5045853;28;20033;-64
2023/03/28 02:03:23;;;;;;;0.57;0.57;;;3.60;73.60;;;;;;5048753;28;20084;-68
2023/03/28 02:05:53;;;;;;;2.55;1.33;;;3.70;73.60;;;;;;5046228;28;20025;-68
2023/03/28 02:08:20;;;;;;;3.55;0.65;;;3.70;73.80;;;;;;5034580;28;20079;-65
2023/03/28 02:10:48;;;;;;;0.90;0.73;;;3.60;73.70;;;;;;5049564;28;20540;-65
2023/03/28 02:13:19;;;;;;;3.00;0.80;;;3.60;73.90;;;;;;5042794;28;20047;-65
2023/03/28 02:15:49;;;;;;;1.42;0.98;;;3.60;73.90;;;;;;5042310;28;20021;-65
2023/03/28 02:18:19;;;;;;;1.33;1.02;;;3.60;73.90;;;;;;5043738;28;20029;-68
2023/03/28 02:20:51;;;;;;;1.45;0.65;;;3.60;74.10;;;;;;5051401;28;20075;-69
2023/03/28 02:23:19;;;;;;;;;;;3.60;74.10;;;;;;5048122;28;20028;-65
2023/03/28 02:25:45;;;;;;;2.13;1.17;;;3.50;74.30;;;;;;5039214;28;20284;-65
2023/03/28 02:28:12;;;;;;;1.60;0.65;;;3.40;74.40;;;;;;5040484;28;20029;-68
2023/03/28 02:30:38;;;;;;;2.95;1.08;;;3.40;74.30;;;;;;5043634;28;20496;-68
2023/03/28 02:33:10;;;;;;;1.45;0.80;;;3.40;74.30;;;;;;5048937;28;20112;-65
2023/03/28 02:36:03;;;;;;;5.28;1.10;;;3.40;74.30;;;;;;5041207;28;20030;-65
2023/03/28 02:38:56;;;;;;;2.92;0.80;;;3.40;74.10;;;;;;5038291;28;20496;-65
2023/03/28 02:41:41;;;;;;;0.95;0.68;;;3.40;74.20;;;;;;5047220;28;20035;-68
2023/03/28 02:44:15;;;;;;;1.55;0.28;;;3.30;74.30;;;;;;5045856;28;20033;-64
2023/03/28 02:46:51;;;;;;;1.58;0.82;;;3.30;74.20;;;;;;5048831;28;20025;-65
2023/03/28 02:49:25;;;;;;;2.42;0.93;;;3.30;74.20;;;;;;5041094;28;20026;-65
2023/03/28 02:52:08;;;;;;;1.23;0.93;;;3.30;74.20;;;;;;5050271;28;20369;-65
2023/03/28 02:54:41;;;;;;;1.17;0.90;;;3.30;74.30;;;;;;5033498;28;20027;-68
2023/03/28 02:57:29;;;;;;;1.55;1.08;;;3.20;74.70;;;;;;5046941;28;20052;-68
2023/03/28 03:00:11;;;;;;;2.20;0.82;;;3.30;74.60;;;;;;5049209;28;20032;-69
2023/03/28 03:02:41;;;;;;;1.10;0.75;;;3.20;74.70;;;;;;5044915;28;20490;-65
2023/03/28 03:05:08;;;;;;;4.03;0.95;;;3.20;74.70;;;;;;5039573;28;20033;-69
2023/03/28 03:07:36;;;;;;;1.90;1.13;;;3.20;74.80;;;;;;5049038;28;20400;-69
2023/03/28 03:10:03;;;;;;;5.63;1.10;;;3.20;74.70;;;;;;5040033;28;20053;-69
2023/03/28 03:12:29;;;;;;;1.58;0.82;;;3.20;74.70;;;;;;5044334;28;20040;-68
2023/03/28 03:14:59;;;;;;;1.00;0.90;;;3.10;74.70;;;;;;5041786;28;20393;-64
2023/03/28 03:17:26;;;;;;;1.65;0.82;;;3.10;74.80;;;;;;5041433;28;20095;-69
2023/03/28 03:19:51;;;;;;;0.60;0.50;;;3.10;74.70;;;;;;5043155;28;20528;-66
2023/03/28 03:22:17;;;;;;;1.65;0.88;;;3.10;74.70;;;;;;5046367;28;20037;-68
2023/03/28 03:24:43;;;;;;;2.15;1.25;;;3.10;74.80;;;;;;5044032;28;20037;-65
2023/03/28 03:27:09;;;;;;;1.85;1.10;;;3.10;74.80;;;;;;5049178;28;20021;-68
2023/03/28 03:29:34;;;;;;;1.30;0.90;;;3.10;74.90;;;;;;5047408;28;20070;-69
2023/03/28 03:32:00;;;;;;;8.45;1.08;;;3.10;74.90;;;;;;5045976;28;20411;-68
2023/03/28 03:34:26;;;;;;;1.98;1.33;;;3.00;74.90;;;;;;5046666;28;20044;-64
2023/03/28 03:36:53;;;;;;;1.08;0.95;;;3.00;75.00;;;;;;5049692;28;20467;-65
2023/03/28 03:39:20;;;;;;;1.05;0.88;;;3.00;75.00;;;;;;5047047;28;20103;-65
2023/03/28 03:41:46;;;;;;;4.45;1.02;;;3.00;75.10;;;;;;5049706;28;20032;-65
2023/03/28 03:44:12;;;;;;;2.95;1.17;;;3.00;75.10;;;;;;5043692;28;20166;-64
2023/03/28 03:46:37;;;;;;;6.88;1.15;;;3.00;75.00;;;;;;5039777;28;20025;-64
2023/03/28 03:49:03;;;;;;;1.45;0.82;;;3.00;75.10;;;;;;5047912;28;20021;-68
2023/03/28 03:51:29;;;;;;;1.80;0.93;;;3.00;75.20;;;;;;5043697;28;20055;-69
2023/03/28 03:53:57;;;;;;;1.60;0.77;;;3.00;75.30;;;;;;5044114;28;20476;-69
2023/03/28 03:56:22;;;;;;;1.52;0.77;;;3.00;75.30;;;;;;5045950;28;20025;-69
2023/03/28 03:58:48;;;;;;;3.13;0.95;;;3.00;75.30;;;;;;5047606;28;20476;-69
2023/03/28 04:01:14;;;;;;;1.10;0.90;;;3.00;75.20;;;;;;5048067;28;20373;-67
2023/03/28 04:03:41;;;;;;;1.20;1.10;;;2.90;75.10;;;;;;5044796;28;20025;-65
2023/03/28 04:06:07;;;;;;;3.53;1.48;;;2.90;75.20;;;;;;5036798;28;20143;-69
2023/03/28 04:08:33;;;;;;;0.70;0.70;;;2.90;75.30;;;;;;5043414;28;20024;-69
2023/03/28 04:10:59;;;;;;;1.45;1.25;;;2.90;75.30;;;;;;5043819;28;20094;-65
2023/03/28 04:13:24;;;;;;;3.30;1.25;;;2.90;75.20;;;;;;5046504;28;20080;-64
2023/03/28 04:15:50;;;;;;;3.05;1.27;;;2.90;75.20;;;;;;5047738;28;20041;-65
2023/03/28 04:18:19;;;;;;;1.15;0.88;;;2.90;75.30;;;;;;5049326;28;20064;-65
2023/03/28 04:20:52;;;;;;;2.53;1.60;;;2.90;75.40;;;;;;5046540;28;20041;-65
2023/03/28 04:23:19;;;;;;;3.00;1.20;;;2.90;75.30;;;;;;5046862;28;20017;-64
2023/03/28 04:25:48;;;;;;;1.30;0.85;;;2.90;75.30;;;;;;5045868;28;20027;-65
2023/03/28 04:28:15;;;;;;;5.75;0.93;;;2.90;75.40;;;;;;5032172;28;20021;-65
2023/03/28 04:30:42;;;;;;;3.63;1.40;;;2.90;75.30;;;;;;5044685;28;20380;-65
2023/03/28 04:33:08;;;;;;;3.42;1.58;;;2.90;75.30;;;;;;5035796;28;20377;-65
2023/03/28 04:35:35;;;;;;;1.85;1.15;;;2.80;75.20;;;;;;5036528;28;20033;-64
2023/03/28 04:38:01;;;;;;;0.77;0.77;;;2.80;75.20;;;;;;5048086;28;20037;-69
2023/03/28 04:40:28;;;;;;;1.70;0.73;;;2.80;75.80;;;;;;5040657;28;20033;-68
2023/03/28 04:42:56;;;;;;;2.08;0.93;;;2.80;75.10;;;;;;5046541;28;20029;-69
2023/03/28 04:45:22;;;;;;;1.10;1.00;;;2.80;75.20;;;;;;5040563;28;20040;-69
2023/03/28 04:47:48;;;;;;;2.65;1.27;;;2.70;75.30;;;;;;5038253;28;20033;-68
2023/03/28 04:50:13;;;;;;;4.97;1.50;;;2.70;75.30;;;;;;5043915;28;20029;-68
2023/03/28 04:52:39;;;;;;;1.80;1.40;;;2.70;75.50;;;;;;5040393;28;20029;-69
2023/03/28 04:55:06;;;;;;;2.42;1.60;;;2.70;75.40;;;;;;5026075;28;20511;-68
2023/03/28 04:57:32;;;;;;;4.90;2.05;;;2.70;75.40;;;;;;5047666;28;20037;-64
2023/03/28 04:59:57;;;;;;;2.17;1.17;;;2.60;75.50;;;;;;5047257;28;20108;-65
2023/03/28 05:02:23;;;;;;;0.90;0.88;;;2.60;75.50;;;;;;5043046;28;20064;-69
2023/03/28 05:04:49;;;;;;;1.35;0.95;;;2.60;75.50;;;;;;5030021;28;20029;-66
2023/03/28 05:07:14;;;;;;;2.65;1.70;;;2.60;75.40;;;;;;5044364;28;20515;-65
2023/03/28 05:09:40;;;;;;;2.47;1.13;;;2.60;76.00;;;;;;5043896;28;20056;-69
2023/03/28 05:12:06;;;;;;;2.67;1.48;;;2.60;76.00;;;;;;5042614;28;20143;-68
2023/03/28 05:14:32;;;;;;;1.65;1.13;;;2.60;75.40;;;;;;5047261;28;20044;-64
2023/03/28 05:16:58;;;;;;;2.25;1.10;;;2.50;75.40;;;;;;5033615;28;20392;-65
2023/03/28 05:19:24;;;;;;;2.35;1.13;;;2.50;75.40;;;;;;5047394;28;20064;-65
2023/03/28 05:21:49;;;;;;;1.08;0.98;;;2.50;75.40;;;;;;5042153;28;20043;-64
2023/03/28 05:24:15;;;;;;;7.35;1.50;;;2.50;75.30;;;;;;5045967;28;20025;-64
2023/03/28 05:26:41;;;;;;;3.90;2.13;;;2.50;75.30;;;;;;5045992;28;20392;-65
2023/03/28 05:29:06;;;;;;;1.92;1.40;;;2.50;75.30;;;;;;5039949;28;20059;-64
2023/03/28 05:31:32;;;;;;;1.65;1.38;;;2.50;75.40;;;;;;5043959;28;20029;-68
2023/03/28 05:33:58;;;;;;;2.63;1.15;;;2.50;75.30;;;;;;5044294;28;20136;-64
2023/03/28 05:36:24;;;;;;;1.67;1.48;;;2.50;75.40;;;;;;5052757;28;20392;-68
2023/03/28 05:38:49;;;;;;;3.78;1.90;;;2.50;75.40;;;;;;5042651;28;20083;-68
2023/03/28 05:41:15;;;;;;;4.93;1.92;;;2.50;75.40;;;;;;5041434;28;20099;-65
2023/03/28 05:43:41;;;;;;;3.25;1.65;;;2.50;75.60;;;;;;5046281;28;20029;-65
2023/03/28 05:46:06;;;;;;;2.33;1.88;;;2.50;75.50;;;;;;5049894;28;20040;-64
2023/03/28 05:48:32;;;;;;;5.28;1.85;;;2.60;75.60;;;;;;5044978;28;20021;-64
2023/03/28 05:50:58;;;;;;;1.38;1.17;;;2.60;75.60;;;;;;5048561;28;20108;-65
2023/03/28 05:53:24;;;;;;;1.92;1.40;;;2.60;75.50;;;;;;5040464;28;20032;-65
2023/03/28 05:55:50;;;;;;;3.95;1.35;;;2.70;75.50;;;;;;5045012;28;20025;-65
2023/03/28 05:58:16;;;;;;;8.48;1.80;;;2.70;75.40;;;;;;5039098;28;20041;-65
2023/03/28 06:00:43;;;;;;;8.30;2.03;;;2.70;75.50;;;;;;5046070;28;20043;-64
2023/03/28 06:03:09;;;;;;;4.00;1.77;;;2.80;76.10;;;;;;5048111;28;20056;-65
2023/03/28 06:05:35;;;;;;;4.97;1.80;;;2.80;75.50;;;;;;5051280;28;20032;-69
2023/03/28 06:08:01;;;;;;;4.07;1.85;;;2.80;75.50;;;;;;5042322;28;20373;-68
2023/03/28 06:10:27;;;;;;;2.30;1.83;;;2.80;75.40;;;;;;5049351;28;20033;-68
2023/03/28 06:12:52;;;;;;;2.47;1.55;;;2.90;75.50;;;;;;5048881;28;20480;-69
2023/03/28 06:15:18;;;;;;;3.53;2.00;;;2.90;75.60;;;;;;5049714;28;20076;-69
2023/03/28 06:17:44;;;;;;;2.33;1.65;;;2.90;75.60;;;;;;5040756;28;20028;-68
2023/03/28 06:20:10;;;;;;;1.45;1.27;;;3.00;75.60;;;;;;5051514;28;20500;-68
2023/03/28 06:22:36;;;;;;;6.05;2.15;;;3.00;75.70;;;;;;5043724;28;20040;-68
2023/03/28 06:25:03;;;;;;;3.03;2.03;;;3.10;75.70;;;;;;5030315;28;20476;-68
2023/03/28 06:27:29;;;;;;;3.42;2.08;;;3.10;75.70;;;;;;5041873;28;20111;-69
2023/03/28 06:29:54;;;;;;;2.10;1.67;;;3.20;75.70;;;;;;5045354;28;20067;-68
2023/03/28 06:32:21;;;;;;;1.70;1.60;;;3.20;75.70;;;;;;5041975;28;20029;-68
2023/03/28 06:34:46;;;;;;;2.67;1.83;;;3.30;75.70;;;;;;5039623;28;20441;-69
2023/03/28 06:37:12;;;;;;;1.08;1.02;;;3.40;75.60;;;;;;5050419;28;20063;-65
2023/03/28 06:39:38;;;;;;;3.00;1.65;;;3.50;75.60;;;;;;5038735;28;20107;-66
2023/03/28 06:42:03;;;;;;;4.13;1.48;;;3.60;75.60;;;;;;5043310;28;20524;-65
2023/03/28 06:44:29;;;;;;;1.30;1.02;;;3.70;75.50;;;;;;5050378;28;20031;-65
2023/03/28 06:46:55;;;;;;;1.65;1.25;;;3.70;75.50;;;;;;5051185;28;20013;-64
2023/03/28 06:49:21;;;;;;;2.70;1.90;;;3.80;75.40;;;;;;5041310;28;20025;-65
2023/03/28 06:51:47;;;;;;;1.58;1.05;;;3.90;75.40;;;;;;5037903;28;20017;-64
2023/03/28 06:54:12;;;;;;;5.63;1.88;;;4.00;75.40;;;;;;5045014;28;20039;-65
2023/03/28 06:56:38;;;;;;;2.10;1.90;;;4.10;75.50;;;;;;5043568;28;20128;-66
2023/03/28 06:59:04;;;;;;;1.25;0.95;;;4.20;75.70;;;;;;5043242;28;20029;-67
2023/03/28 07:01:30;;;;;;;2.00;1.55;;;4.30;75.60;;;;;;5032877;28;20057;-64
2023/03/28 07:03:58;;;;;;;4.65;1.30;;;4.40;75.50;;;;;;5047916;28;20114;-66
2023/03/28 07:06:25;;;;;;;1.50;1.40;;;4.50;75.40;;;;;;5032972;28;20035;-66
2023/03/28 07:08:51;;;;;;;1.60;1.50;;;4.50;75.30;;;;;;5047526;28;20115;-66
2023/03/28 07:11:16;;;;;;;7.72;1.85;;;4.60;75.10;;;;;;5041137;28;20602;-66
2023/03/28 07:13:42;;;;;;;2.17;1.90;;;4.70;75.00;;;;;;5051812;28;20034;-66
2023/03/28 07:16:12;;;;;;;1.90;1.33;;;4.80;74.80;;;;;;5047082;28;20037;-66
2023/03/28 07:18:40;;;;;;;1.95;1.33;;;5.00;74.60;;;;;;5049270;28;20404;-67
2023/03/28 07:21:10;;;;;;;4.82;1.98;;;5.10;74.40;;;;;;5045762;28;20040;-67
2023/03/28 07:23:38;;;;;;;2.58;1.33;;;5.30;74.30;;;;;;5045888;28;20124;-66
2023/03/28 07:26:05;;;;;;;6.70;1.67;;;5.40;74.10;;;;;;5047793;28;20496;-66
2023/03/28 07:28:31;;;;;;;3.72;1.40;;;5.50;73.90;;;;;;5043385;28;20023;-66
2023/03/28 07:30:59;;;;;;;3.20;1.67;;;5.60;73.60;;;;;;5044377;28;20117;-66
2023/03/28 07:33:24;;;;;;;2.05;1.48;;;5.60;73.60;;;;;;5047809;28;20497;-66
2023/03/28 07:35:51;;;;;;;1.77;1.20;;;5.60;73.50;;;;;;5048255;28;20064;-67
2023/03/28 07:38:17;;;;;;;4.28;2.28;;;5.60;73.50;;;;;;5044659;28;20036;-67
2023/03/28 07:40:43;;;;;;;5.05;1.67;;;5.60;73.50;;;;;;5044396;28;20475;-67
2023/03/28 07:43:09;;;;;;;2.45;1.50;;;5.60;73.40;;;;;;5077854;28;20026;-67
2023/03/28 07:45:36;;;;;;;4.63;1.85;;;5.60;73.40;;;;;;5044627;28;20070;-66
2023/03/28 07:48:02;;;;;;;3.55;1.80;;;5.60;73.50;;;;;;5044802;28;20031;-67
2023/03/28 07:50:28;;;;;;;2.88;1.63;;;5.60;73.60;;;;;;5043332;28;20119;-66
2023/03/28 07:52:56;;;;;;;1.13;1.02;;;5.70;73.60;;;;;;5039807;28;20120;-67
2023/03/28 07:55:26;;;;;;;3.13;1.58;;;5.80;73.50;;;;;;5036592;28;20120;-66
2023/03/28 07:57:53;;;;;;;1.60;1.00;;;5.80;73.30;;;;;;5046086;28;20044;-66
2023/03/28 08:00:22;;;;;;;2.47;1.58;;;5.90;73.10;;;;;;5076553;28;20083;-68
2023/03/28 08:02:49;;;;;;;2.53;1.70;;;5.90;73.00;;;;;;5045366;28;20486;-67
2023/03/28 08:05:16;;;;;;;2.08;1.63;;;6.00;72.70;;;;;;5045879;28;20021;-67
2023/03/28 08:07:44;;;;;;;2.25;1.58;;;6.10;72.80;;;;;;5048194;28;20342;-67
2023/03/28 08:10:11;;;;;;;2.58;1.67;;;6.20;72.40;;;;;;5043766;28;20212;-66
2023/03/28 08:12:36;;;;;;;2.33;1.45;;;6.40;72.20;;;;;;5048961;28;20494;-66
2023/03/28 08:15:03;;;;;;;6.95;2.45;;;6.40;71.80;;;;;;5044688;28;20041;-65
2023/03/28 08:17:29;;;;;;;7.82;1.98;;;6.50;71.10;;;;;;5048950;28;20116;-66
2023/03/28 08:19:55;;;;;;;4.57;1.20;;;6.50;70.90;;;;;;5042850;28;20407;-66
2023/03/28 08:22:20;;;;;;;1.95;1.48;;;6.60;70.80;;;;;;5040182;28;20590;-66
2023/03/28 08:24:46;;;;;;;2.90;1.55;;;6.70;70.70;;;;;;5024593;28;20477;-66
2023/03/28 08:27:12;;;;;;;4.00;1.92;;;6.90;70.50;;;;;;5048047;28;20392;-65
2023/03/28 08:29:41;;;;;;;5.18;1.75;;;7.00;70.00;;;;;;5054524;28;20017;-67
2023/03/28 08:32:06;;;;;;;2.83;1.63;;;7.10;69.80;;;;;;5045446;28;20518;-67
2023/03/28 08:34:32;;;;;;;4.93;1.95;;;7.20;69.70;;;;;;5042706;28;20025;-65
2023/03/28 08:36:58;;;;;;;1.42;1.08;;;7.30;69.50;;;;;;5045229;28;20207;-68
2023/03/28 08:39:25;;;;;;;2.22;1.48;;;7.40;69.30;;;;;;5042741;28;20387;-67
2023/03/28 08:42:25;;;;;;;1.48;1.15;;;7.50;68.80;;;;;;5049180;28;20028;-67
2023/03/28 08:45:19;;;;;;;5.68;1.58;;;7.60;68.60;;;;;;5048334;28;20482;-65
2023/03/28 08:48:18;;;;;;;6.97;1.88;;;7.70;68.20;;;;;;5046185;28;20022;-66
2023/03/28 08:51:02;;;;;;;4.55;1.58;;;7.80;67.10;;;;;;5045461;28;20143;-67
2023/03/28 08:53:37;;;;;;;3.47;2.13;;;7.80;66.80;;;;;;5047836;28;20021;-67
2023/03/28 08:56:05;;;;;;;5.82;2.05;;;7.80;66.50;;;;;;5035757;28;20013;-66
2023/03/28 08:59:03;;;;;;;1.75;1.40;;;7.80;66.20;;;;;;5048939;28;20025;-67
2023/03/28 09:01:31;;;;;;;1.73;1.20;;;7.70;65.20;;;;;;5042427;28;20099;-66
2023/03/28 09:03:58;;;;;;;3.53;1.60;;;7.70;65.80;;;;;;5042027;28;20037;-67
2023/03/28 09:06:30;;;;;;;2.22;1.25;;;7.80;66.10;;;;;;5036847;28;20025;-66
2023/03/28 09:09:16;;;;;;;1.55;0.93;;;7.90;66.10;;;;;;5038244;28;20027;-65
2023/03/28 09:12:22;;;;;;;3.70;1.45;;;8.00;65.60;;;;;;5039471;28;20044;-66
2023/03/28 09:15:32;;;;;;;0.55;0.55;;;8.10;64.60;;;;;;5029684;28;20057;-68
2023/03/28 09:18:27;;;;;;;1.65;0.85;;;8.10;63.80;;;;;;5039071;28;20404;-67
2023/03/28 09:21:20;;;;;;;0.88;0.88;;;8.20;63.50;;;;;;5037135;28;20028;-67
2023/03/28 09:24:06;;;;;;;2.45;1.05;;;8.30;62.90;;;;;;5043667;28;20033;-66
2023/03/28 09:26:39;;;;;;;1.38;1.10;;;8.30;62.40;;;;;;5048753;28;20498;-66
2023/03/28 09:29:12;;;;;;;1.42;0.80;;;8.40;61.90;;;;;;5049023;28;20021;-66
2023/03/28 09:31:55;;;;;;;5.65;1.10;;;8.40;61.40;;;;;;5042341;28;20033;-66
2023/03/28 09:34:26;;;;;;;2.60;1.23;;;8.40;61.20;;;;;;5048484;28;20033;-66
2023/03/28 09:36:56;;;;;;;1.33;0.82;;;8.50;60.60;;;;;;5040955;28;20033;-66
2023/03/28 09:39:31;;;;;;;0.85;0.75;;;8.70;60.70;;;;;;5044402;28;20336;-66
2023/03/28 09:42:00;;;;;;;2.65;1.23;;;8.80;60.30;;;;;;5047253;28;20013;-66
2023/03/28 09:44:32;;;;;;;2.42;1.25;;;8.90;60.10;;;;;;5048749;28;20103;-66
2023/03/28 09:46:59;;;;;;;2.05;1.13;;;8.80;59.60;;;;;;5047911;28;20039;-66
2023/03/28 09:49:25;;;;;;;3.35;1.05;;;8.80;59.40;;;;;;5046935;28;20048;-66
2023/03/28 09:51:54;;;;;;;0.88;0.88;;;8.80;59.40;;;;;;5048011;28;20027;-66
2023/03/28 09:54:34;;;;;;;1.73;1.00;;;8.80;58.90;;;;;;5039891;28;20037;-66
2023/03/28 09:57:03;;;;;;;3.35;1.48;;;8.80;58.20;;;;;;5040966;28;20106;-66
2023/03/28 09:59:33;;;;;;;2.28;0.90;;;8.90;57.20;;;;;;5047739;28;20040;-66
2023/03/28 10:02:01;;;;;;;1.20;1.00;;;9.10;57.10;;;;;;5041781;28;20033;-67
2023/03/28 10:04:27;;;;;;;1.95;1.10;;;9.30;56.90;;;;;;5037751;28;20095;-66
2023/03/28 10:07:18;;;;;;;2.83;1.10;;;9.50;56.00;;;;;;5046489;28;20060;-66
2023/03/28 10:09:49;;;;;;;3.78;1.38;;;9.60;54.50;;;;;;5040698;28;20088;-67
2023/03/28 10:12:31;;;;;;;3.70;1.13;;;9.60;55.00;;;;;;5048377;28;20120;-66
2023/03/28 10:14:57;;;;;;;1.20;0.88;;;9.70;54.70;;;;;;5042825;28;20477;-65
2023/03/28 10:17:35;;;;;;;1.33;1.23;;;9.60;54.60;;;;;;5041121;28;20427;-66
2023/03/28 10:20:16;;;;;;;3.75;1.33;;;9.50;53.70;;;;;;5045112;28;20028;-67
2023/03/28 10:22:46;;;;;;;1.45;1.20;;;9.30;53.00;;;;;;5052683;28;20107;-66
2023/03/28 10:25:19;;;;;;;1.50;1.05;;;9.30;53.30;;;;;;5040080;28;20761;-66
2023/03/28 10:27:47;;;;;;;1.48;1.00;;;9.30;54.20;;;;;;5045943;28;20464;-65
2023/03/28 10:30:12;;;;;;;1.58;0.90;;;9.40;53.00;;;;;;5045484;28;20032;-67
2023/03/28 10:32:38;;;;;;;1.45;1.02;;;9.40;52.50;;;;;;5045952;28;20388;-66
2023/03/28 10:35:29;;;;;;;2.28;1.05;;;9.50;53.10;;;;;;5048647;28;20064;-67
2023/03/28 10:38:02;;;;;;;2.88;1.17;;;9.70;52.60;;;;;;5050225;28;20079;-66
2023/03/28 10:40:29;;;;;;;1.55;1.15;;;9.80;51.90;;;;;;5045024;28;20037;-66
2023/03/28 10:42:56;;;;;;;1.52;1.00;;;9.80;52.40;;;;;;5052507;28;20060;-65
2023/03/28 10:45:33;;;;;;;1.17;0.85;;;10.00;52.50;;;;;;5048240;28;20469;-66
2023/03/28 10:48:04;;;;;;;2.28;0.90;;;10.10;52.20;;;;;;5046120;28;20017;-65
2023/03/28 10:50:39;;;;;;;1.83;1.35;;;10.00;52.00;;;;;;5041279;28;20034;-65
2023/03/28 10:53:36;;;;;;;1.98;1.00;;;10.00;51.90;;;;;;5049416;28;20075;-66
2023/03/28 10:56:20;;;;;;;6.10;1.10;;;10.00;52.20;;;;;;5055328;28;20032;-66
2023/03/28 10:58:49;;;;;;;2.75;1.25;;;10.20;52.40;;;;;;5042936;28;20384;-67
2023/03/28 11:01:18;;;;;;;3.67;1.00;;;10.30;52.60;;;;;;5040085;28;20044;-65
2023/03/28 11:04:21;;;;;;;1.27;0.88;;;10.30;52.40;;;;;;5044531;28;20038;-65
2023/03/28 11:07:00;;;;;;;0.80;0.43;;;10.40;52.80;;;;;;5044220;28;20021;-66
2023/03/28 11:09:35;;;;;;;7.40;1.55;;;10.50;52.50;;;;;;5040584;28;20052;-65
2023/03/28 11:12:18;;;;;;;4.20;0.85;;;10.40;51.40;;;;;;5047536;28;20449;-66
2023/03/28 11:14:48;;;;;;;1.02;0.77;;;10.30;51.40;;;;;;5043161;28;20021;-67
2023/03/28 11:17:25;;;;;;;4.25;1.10;;;10.20;51.60;;;;;;5045906;28;20029;-66
2023/03/28 11:19:54;;;;;;;2.03;1.23;;;10.20;52.10;;;;;;5046635;28;20037;-66
2023/03/28 11:22:23;;;;;;;4.15;1.15;;;10.20;52.20;;;;;;5038543;28;20495;-67
2023/03/28 11:25:01;;;;;;;2.05;0.95;;;10.20;51.70;;;;;;5045181;28;20107;-67
2023/03/28 11:27:35;;;;;;;1.70;1.05;;;10.20;51.10;;;;;;5042368;28;20171;-66
2023/03/28 11:30:16;;;;;;;0.85;0.70;;;10.20;51.80;;;;;;5050115;28;20104;-66
2023/03/28 11:33:09;;;;;;;5.15;0.77;;;10.30;51.90;;;;;;5044248;28;20033;-66
2023/03/28 11:35:38;;;;;;;1.95;0.93;;;10.30;51.40;;;;;;5042868;28;20025;-67
2023/03/28 11:38:21;;;;;;;1.33;0.80;;;10.40;52.10;;;;;;5039805;28;20025;-66
2023/03/28 11:40:58;;;;;;;2.92;1.05;;;10.50;51.90;;;;;;5035783;28;20111;-67
2023/03/28 11:43:51;;;;;;;1.02;0.65;;;10.50;50.70;;;;;;5048882;28;20021;-66
2023/03/28 11:46:26;;;;;;;1.08;0.73;;;10.40;50.90;;;;;;5042240;28;20039;-65
2023/03/28 11:49:10;;;;;;;1.48;0.55;;;10.50;51.50;;;;;;5050718;28;20056;-66
2023/03/28 11:52:01;;;;;;;4.22;1.50;;;10.60;51.40;;;;;;5048773;28;20028;-66
2023/03/28 11:54:46;;;;;;;1.60;0.60;;;10.80;50.80;;;;;;5046354;28;20100;-66
2023/03/28 11:57:18;;;;;;;3.00;1.40;;;11.00;50.20;;;;;;5044892;28;20033;-66
2023/03/28 11:59:52;;;;;;;3.15;1.10;;;11.10;49.10;;;;;;5048468;28;20044;-67
2023/03/28 12:02:36;;;;;;;1.48;1.10;;;11.10;48.80;;;;;;5049660;28;20049;-66
2023/03/28 12:05:10;;;;;;;2.00;0.60;;;11.10;48.80;;;;;;5047306;28;20021;-67
2023/03/28 12:08:03;;;;;;;1.20;0.88;;;11.10;49.40;;;;;;5045381;28;20021;-66
2023/03/28 12:10:38;;;;;;;1.23;0.77;;;11.20;49.20;;;;;;5048467;28;20033;-67
2023/03/28 12:13:31;;;;;;;3.53;1.13;;;11.40;49.30;;;;;;5049056;28;20021;-66
2023/03/28 12:16:20;;;;;;;2.25;0.65;;;11.50;49.70;;;;;;5048957;28;20112;-66
2023/03/28 12:19:00;;;;;;;1.80;0.70;;;11.80;49.60;;;;;;5050598;28;20021;-67
2023/03/28 12:21:40;;;;;;;1.40;0.98;;;11.90;49.30;;;;;;5046817;28;20041;-66
2023/03/28 12:24:22;;;;;;;1.77;0.85;;;12.00;49.20;;;;;;5043550;28;20023;-66
2023/03/28 12:27:16;;;;;;;10.40;1.57;;;11.90;47.40;;;;;;5040357;28;20033;-66
2023/03/28 12:30:04;;;;;;;2.28;0.57;;;11.90;48.20;;;;;;5050420;28;20299;-66
2023/03/28 12:32:54;;;;;;;0.98;0.88;;;12.20;48.30;;;;;;5048320;28;20021;-66
2023/03/28 12:35:40;;;;;;;0.85;0.50;;;12.30;47.50;;;;;;5049294;28;20090;-67
2023/03/28 12:38:06;;;;;;;1.98;0.88;;;12.40;46.90;;;;;;5045976;28;20043;-67
2023/03/28 12:41:02;;;;;;;0.75;0.50;;;12.40;47.20;;;;;;5047678;28;20021;-66
2023/03/28 12:43:48;;;;;;;2.22;1.05;;;12.40;47.10;;;;;;5045904;28;20163;-66
2023/03/28 12:46:28;;;;;;;2.90;0.85;;;12.30;46.90;;;;;;5043401;28;20033;-66
2023/03/28 12:49:01;;;;;;;1.02;0.93;;;12.20;47.50;;;;;;5042461;28;20068;-65
2023/03/28 12:51:33;;;;;;;1.50;0.60;;;12.20;47.70;;;;;;5040087;28;20075;-67
2023/03/28 12:54:19;;;;;;;;;;;12.10;47.80;;;;;;5037623;28;20025;-66
2023/03/28 12:56:46;;;;;;;0.98;0.60;;;12.10;47.80;;;;;;5040617;28;19908;-66
2023/03/28 13:00:06;;;;;;;3.13;1.15;;;11.90;47.40;;;;;;5037220;28;20033;-66
2023/03/28 13:02:39;;;;;;;0.80;0.80;;;11.70;47.40;;;;;;5022195;28;20136;-67
2023/03/28 13:05:32;;;;;;;11.05;1.08;;;11.50;47.60;;;;;;5044269;28;20118;-66
2023/03/28 13:08:16;;;;;;;2.22;1.30;;;11.50;48.30;;;;;;5043711;28;20028;-66
2023/03/28 13:11:00;;;;;;;2.08;1.08;;;11.60;48.40;;;;;;5046407;28;20094;-66
2023/03/28 13:13:57;;;;;;;2.30;1.30;;;11.60;48.50;;;;;;5040364;28;20037;-66
2023/03/28 13:16:25;;;;;;;1.95;1.25;;;11.70;48.10;;;;;;5046229;28;20025;-67
2023/03/28 13:19:11;;;;;;;0.90;0.90;;;11.70;48.30;;;;;;5040327;28;20053;-67
2023/03/28 13:21:50;;;;;;;1.55;1.17;;;11.90;48.70;;;;;;5042003;28;20052;-66